sensor_id;sensor_type;location;lat;lon;timestamp;P1;durP1;ratioP1;P2;durP2;ratioP2
2219;SDS011;1116;51.502;7.414;2023-08-08T00:01:10;4.40;;;2.08;;
2219;SDS011;1116;51.502;7.414;2023-08-08T00:03:41;4.57;;;2.08;;
2219;SDS011;1116;51.502;7.414;2023-08-08T00:06:12;3.65;;;2.08;;
2219;SDS011;1116;51.502;7.414;2023-08-08T00:08:42;4.57;;;1.80;;
2219;SDS011;1116;51.502;7.414;2023-08-08T00:11:16;3.60;;;1.63;;
2219;SDS011;1116;51.502;7.414;2023-08-08T00:13:47;3.80;;;1.83;;
2219;SDS011;1116;51.502;7.414;2023-08-08T00:16:18;3.20;;;1.65;;
2219;SDS011;1116;51.502;7.414;2023-08-08T00:18:49;4.53;;;1.63;;
2219;SDS011;1116;51.502;7.414;2023-08-08T00:21:21;3.08;;;1.77;;
2219;SDS011;1116;51.502;7.414;2023-08-08T00:23:52;2.92;;;1.50;;
2219;SDS011;1116;51.502;7.414;2023-08-08T00:26:26;5.18;;;1.70;;
2219;SDS011;1116;51.502;7.414;2023-08-08T00:28:57;6.32;;;1.80;;
2219;SDS011;1116;51.502;7.414;2023-08-08T00:31:28;7.63;;;2.08;;
2219;SDS011;1116;51.502;7.414;2023-08-08T00:33:59;5.15;;;2.00;;
2219;SDS011;1116;51.502;7.414;2023-08-08T00:36:31;3.90;;;1.65;;
2219;SDS011;1116;51.502;7.414;2023-08-08T00:39:02;4.15;;;2.03;;
2219;SDS011;1116;51.502;7.414;2023-08-08T00:41:35;4.38;;;1.70;;
2219;SDS011;1116;51.502;7.414;2023-08-08T00:44:07;3.45;;;1.70;;
2219;SDS011;1116;51.502;7.414;2023-08-08T00:46:38;5.35;;;2.08;;
2219;SDS011;1116;51.502;7.414;2023-08-08T00:49:09;5.28;;;1.80;;
2219;SDS011;1116;51.502;7.414;2023-08-08T00:51:39;3.47;;;1.63;;
2219;SDS011;1116;51.502;7.414;2023-08-08T00:54:10;4.72;;;2.00;;
2219;SDS011;1116;51.502;7.414;2023-08-08T00:56:46;6.15;;;1.90;;
2219;SDS011;1116;51.502;7.414;2023-08-08T00:59:17;5.90;;;1.95;;
2219;SDS011;1116;51.502;7.414;2023-08-08T01:01:49;4.35;;;2.00;;
2219;SDS011;1116;51.502;7.414;2023-08-08T01:04:20;4.97;;;2.00;;
2219;SDS011;1116;51.502;7.414;2023-08-08T01:06:57;7.40;;;2.35;;
2219;SDS011;1116;51.502;7.414;2023-08-08T01:09:39;4.90;;;1.75;;
2219;SDS011;1116;51.502;7.414;2023-08-08T01:12:18;2.97;;;1.88;;
2219;SDS011;1116;51.502;7.414;2023-08-08T01:14:48;3.70;;;2.20;;
2219;SDS011;1116;51.502;7.414;2023-08-08T01:17:19;4.90;;;2.20;;
2219;SDS011;1116;51.502;7.414;2023-08-08T01:19:50;4.95;;;2.42;;
2219;SDS011;1116;51.502;7.414;2023-08-08T01:22:22;4.53;;;1.88;;
2219;SDS011;1116;51.502;7.414;2023-08-08T01:25:02;7.00;;;2.10;;
2219;SDS011;1116;51.502;7.414;2023-08-08T01:27:33;5.20;;;2.00;;
2219;SDS011;1116;51.502;7.414;2023-08-08T01:30:06;5.18;;;2.22;;
2219;SDS011;1116;51.502;7.414;2023-08-08T01:32:37;6.63;;;2.00;;
2219;SDS011;1116;51.502;7.414;2023-08-08T01:35:08;4.60;;;1.77;;
2219;SDS011;1116;51.502;7.414;2023-08-08T01:37:39;6.50;;;2.28;;
2219;SDS011;1116;51.502;7.414;2023-08-08T01:40:17;6.80;;;1.90;;
2219;SDS011;1116;51.502;7.414;2023-08-08T01:42:48;4.68;;;1.90;;
2219;SDS011;1116;51.502;7.414;2023-08-08T01:45:19;7.53;;;2.33;;
2219;SDS011;1116;51.502;7.414;2023-08-08T01:47:52;3.03;;;1.80;;
2219;SDS011;1116;51.502;7.414;2023-08-08T01:50:22;3.72;;;1.77;;
2219;SDS011;1116;51.502;7.414;2023-08-08T01:52:53;5.00;;;1.95;;
2219;SDS011;1116;51.502;7.414;2023-08-08T01:55:27;4.20;;;1.80;;
2219;SDS011;1116;51.502;7.414;2023-08-08T01:57:58;3.25;;;1.65;;
2219;SDS011;1116;51.502;7.414;2023-08-08T02:00:29;3.28;;;2.08;;
2219;SDS011;1116;51.502;7.414;2023-08-08T02:03:00;6.13;;;2.28;;
2219;SDS011;1116;51.502;7.414;2023-08-08T02:05:31;3.95;;;2.10;;
2219;SDS011;1116;51.502;7.414;2023-08-08T02:08:02;4.65;;;2.10;;
2219;SDS011;1116;51.502;7.414;2023-08-08T02:10:35;4.00;;;2.10;;
2219;SDS011;1116;51.502;7.414;2023-08-08T02:13:06;4.03;;;1.92;;
2219;SDS011;1116;51.502;7.414;2023-08-08T02:15:38;8.35;;;2.20;;
2219;SDS011;1116;51.502;7.414;2023-08-08T02:18:09;8.95;;;1.90;;
2219;SDS011;1116;51.502;7.414;2023-08-08T02:20:40;4.90;;;2.10;;
2219;SDS011;1116;51.502;7.414;2023-08-08T02:23:11;5.00;;;1.77;;
2219;SDS011;1116;51.502;7.414;2023-08-08T02:25:45;5.68;;;1.85;;
2219;SDS011;1116;51.502;7.414;2023-08-08T02:28:16;5.45;;;1.88;;
2219;SDS011;1116;51.502;7.414;2023-08-08T02:30:47;4.75;;;1.95;;
2219;SDS011;1116;51.502;7.414;2023-08-08T02:33:18;6.68;;;2.00;;
2219;SDS011;1116;51.502;7.414;2023-08-08T02:35:49;5.70;;;1.88;;
2219;SDS011;1116;51.502;7.414;2023-08-08T02:38:20;5.70;;;2.40;;
2219;SDS011;1116;51.502;7.414;2023-08-08T02:40:54;5.78;;;2.10;;
2219;SDS011;1116;51.502;7.414;2023-08-08T02:43:25;4.43;;;1.70;;
2219;SDS011;1116;51.502;7.414;2023-08-08T02:45:55;5.70;;;1.98;;
2219;SDS011;1116;51.502;7.414;2023-08-08T02:48:26;3.58;;;1.75;;
2219;SDS011;1116;51.502;7.414;2023-08-08T02:50:57;3.80;;;2.08;;
2219;SDS011;1116;51.502;7.414;2023-08-08T02:53:28;7.38;;;2.05;;
2219;SDS011;1116;51.502;7.414;2023-08-08T02:56:02;4.10;;;2.15;;
2219;SDS011;1116;51.502;7.414;2023-08-08T02:58:33;4.10;;;1.88;;
2219;SDS011;1116;51.502;7.414;2023-08-08T03:01:04;5.35;;;1.90;;
2219;SDS011;1116;51.502;7.414;2023-08-08T03:03:35;4.47;;;2.30;;
2219;SDS011;1116;51.502;7.414;2023-08-08T03:06:06;10.35;;;3.20;;
2219;SDS011;1116;51.502;7.414;2023-08-08T03:08:37;6.18;;;2.30;;
2219;SDS011;1116;51.502;7.414;2023-08-08T03:11:10;4.45;;;2.20;;
2219;SDS011;1116;51.502;7.414;2023-08-08T03:13:41;5.65;;;2.60;;
2219;SDS011;1116;51.502;7.414;2023-08-08T03:16:12;7.32;;;2.75;;
2219;SDS011;1116;51.502;7.414;2023-08-08T03:18:43;7.68;;;2.60;;
2219;SDS011;1116;51.502;7.414;2023-08-08T03:21:14;10.75;;;2.63;;
2219;SDS011;1116;51.502;7.414;2023-08-08T03:23:45;12.27;;;3.35;;
2219;SDS011;1116;51.502;7.414;2023-08-08T03:26:19;6.75;;;2.70;;
2219;SDS011;1116;51.502;7.414;2023-08-08T03:28:50;7.40;;;2.33;;
2219;SDS011;1116;51.502;7.414;2023-08-08T03:31:22;7.18;;;2.70;;
2219;SDS011;1116;51.502;7.414;2023-08-08T03:33:54;7.28;;;2.35;;
2219;SDS011;1116;51.502;7.414;2023-08-08T03:36:24;6.78;;;2.17;;
2219;SDS011;1116;51.502;7.414;2023-08-08T03:38:56;6.75;;;2.33;;
2219;SDS011;1116;51.502;7.414;2023-08-08T03:41:30;4.43;;;2.53;;
2219;SDS011;1116;51.502;7.414;2023-08-08T03:44:01;8.80;;;2.83;;
2219;SDS011;1116;51.502;7.414;2023-08-08T03:46:32;5.75;;;2.47;;
2219;SDS011;1116;51.502;7.414;2023-08-08T03:49:04;3.97;;;2.50;;
2219;SDS011;1116;51.502;7.414;2023-08-08T03:51:35;5.30;;;2.60;;
2219;SDS011;1116;51.502;7.414;2023-08-08T03:54:06;7.80;;;2.72;;
2219;SDS011;1116;51.502;7.414;2023-08-08T03:56:39;10.98;;;2.50;;
2219;SDS011;1116;51.502;7.414;2023-08-08T03:59:11;7.65;;;2.90;;
2219;SDS011;1116;51.502;7.414;2023-08-08T04:01:42;11.63;;;3.42;;
2219;SDS011;1116;51.502;7.414;2023-08-08T04:04:13;9.68;;;3.53;;
2219;SDS011;1116;51.502;7.414;2023-08-08T04:06:44;10.98;;;3.42;;
2219;SDS011;1116;51.502;7.414;2023-08-08T04:09:15;11.25;;;3.70;;
2219;SDS011;1116;51.502;7.414;2023-08-08T04:11:48;7.53;;;3.33;;
2219;SDS011;1116;51.502;7.414;2023-08-08T04:14:20;10.13;;;3.67;;
2219;SDS011;1116;51.502;7.414;2023-08-08T04:16:50;10.15;;;3.50;;
2219;SDS011;1116;51.502;7.414;2023-08-08T04:19:21;10.50;;;4.05;;
2219;SDS011;1116;51.502;7.414;2023-08-08T04:21:52;6.32;;;3.30;;
2219;SDS011;1116;51.502;7.414;2023-08-08T04:24:24;9.43;;;3.78;;
2219;SDS011;1116;51.502;7.414;2023-08-08T04:26:58;8.60;;;3.72;;
2219;SDS011;1116;51.502;7.414;2023-08-08T04:29:29;7.88;;;4.07;;
2219;SDS011;1116;51.502;7.414;2023-08-08T04:32:01;10.60;;;4.45;;
2219;SDS011;1116;51.502;7.414;2023-08-08T04:34:32;9.68;;;4.38;;
2219;SDS011;1116;51.502;7.414;2023-08-08T04:37:03;11.23;;;4.72;;
2219;SDS011;1116;51.502;7.414;2023-08-08T04:39:35;10.55;;;4.78;;
2219;SDS011;1116;51.502;7.414;2023-08-08T04:42:09;11.15;;;4.15;;
2219;SDS011;1116;51.502;7.414;2023-08-08T04:44:40;12.63;;;4.90;;
2219;SDS011;1116;51.502;7.414;2023-08-08T04:47:10;8.07;;;3.90;;
2219;SDS011;1116;51.502;7.414;2023-08-08T04:49:41;12.18;;;4.80;;
2219;SDS011;1116;51.502;7.414;2023-08-08T04:52:13;9.15;;;4.22;;
2219;SDS011;1116;51.502;7.414;2023-08-08T04:54:43;11.48;;;4.43;;
2219;SDS011;1116;51.502;7.414;2023-08-08T04:57:16;10.20;;;5.25;;
2219;SDS011;1116;51.502;7.414;2023-08-08T04:59:48;10.18;;;4.85;;
2219;SDS011;1116;51.502;7.414;2023-08-08T05:02:19;17.15;;;6.50;;
2219;SDS011;1116;51.502;7.414;2023-08-08T05:04:50;11.07;;;5.40;;
2219;SDS011;1116;51.502;7.414;2023-08-08T05:07:21;12.43;;;6.03;;
2219;SDS011;1116;51.502;7.414;2023-08-08T05:09:51;15.85;;;6.13;;
2219;SDS011;1116;51.502;7.414;2023-08-08T05:12:25;10.73;;;4.82;;
2219;SDS011;1116;51.502;7.414;2023-08-08T05:14:56;10.68;;;5.05;;
2219;SDS011;1116;51.502;7.414;2023-08-08T05:17:29;12.77;;;5.55;;
2219;SDS011;1116;51.502;7.414;2023-08-08T05:20:00;10.55;;;5.28;;
2219;SDS011;1116;51.502;7.414;2023-08-08T05:22:31;12.57;;;5.80;;
2219;SDS011;1116;51.502;7.414;2023-08-08T05:25:03;13.50;;;5.63;;
2219;SDS011;1116;51.502;7.414;2023-08-08T05:27:36;15.75;;;6.68;;
2219;SDS011;1116;51.502;7.414;2023-08-08T05:30:08;16.50;;;6.65;;
2219;SDS011;1116;51.502;7.414;2023-08-08T05:32:40;20.60;;;7.60;;
2219;SDS011;1116;51.502;7.414;2023-08-08T05:35:11;12.30;;;6.38;;
2219;SDS011;1116;51.502;7.414;2023-08-08T05:37:43;20.02;;;6.47;;
2219;SDS011;1116;51.502;7.414;2023-08-08T05:40:14;16.92;;;6.70;;
2219;SDS011;1116;51.502;7.414;2023-08-08T05:42:47;15.40;;;6.80;;
2219;SDS011;1116;51.502;7.414;2023-08-08T05:45:19;10.57;;;5.40;;
2219;SDS011;1116;51.502;7.414;2023-08-08T05:47:50;12.43;;;7.22;;
2219;SDS011;1116;51.502;7.414;2023-08-08T05:50:22;15.15;;;7.03;;
2219;SDS011;1116;51.502;7.414;2023-08-08T05:52:54;14.43;;;6.82;;
2219;SDS011;1116;51.502;7.414;2023-08-08T05:55:25;18.40;;;7.97;;
2219;SDS011;1116;51.502;7.414;2023-08-08T05:57:59;18.90;;;8.55;;
2219;SDS011;1116;51.502;7.414;2023-08-08T06:00:31;15.93;;;8.57;;
2219;SDS011;1116;51.502;7.414;2023-08-08T06:03:03;19.83;;;8.70;;
2219;SDS011;1116;51.502;7.414;2023-08-08T06:05:35;17.05;;;8.38;;
2219;SDS011;1116;51.502;7.414;2023-08-08T06:08:06;15.98;;;8.68;;
2219;SDS011;1116;51.502;7.414;2023-08-08T06:10:39;21.30;;;9.82;;
2219;SDS011;1116;51.502;7.414;2023-08-08T06:13:13;17.88;;;9.40;;
2219;SDS011;1116;51.502;7.414;2023-08-08T06:15:44;19.88;;;10.25;;
2219;SDS011;1116;51.502;7.414;2023-08-08T06:18:15;19.10;;;9.25;;
2219;SDS011;1116;51.502;7.414;2023-08-08T06:20:47;23.05;;;10.20;;
2219;SDS011;1116;51.502;7.414;2023-08-08T06:23:18;28.48;;;12.07;;
2219;SDS011;1116;51.502;7.414;2023-08-08T06:25:48;19.30;;;10.27;;
2219;SDS011;1116;51.502;7.414;2023-08-08T06:28:22;23.38;;;10.88;;
2219;SDS011;1116;51.502;7.414;2023-08-08T06:30:53;22.60;;;10.30;;
2219;SDS011;1116;51.502;7.414;2023-08-08T06:33:24;20.25;;;10.65;;
2219;SDS011;1116;51.502;7.414;2023-08-08T06:35:56;22.85;;;12.25;;
2219;SDS011;1116;51.502;7.414;2023-08-08T06:38:27;23.33;;;11.02;;
2219;SDS011;1116;51.502;7.414;2023-08-08T06:41:01;21.10;;;9.98;;
2219;SDS011;1116;51.502;7.414;2023-08-08T06:43:36;19.85;;;10.82;;
2219;SDS011;1116;51.502;7.414;2023-08-08T06:46:07;20.73;;;10.25;;
2219;SDS011;1116;51.502;7.414;2023-08-08T06:48:38;16.88;;;10.65;;
2219;SDS011;1116;51.502;7.414;2023-08-08T06:51:09;22.75;;;11.25;;
2219;SDS011;1116;51.502;7.414;2023-08-08T06:53:40;19.67;;;11.30;;
2219;SDS011;1116;51.502;7.414;2023-08-08T06:56:11;17.98;;;10.93;;
2219;SDS011;1116;51.502;7.414;2023-08-08T06:58:45;22.42;;;12.20;;
2219;SDS011;1116;51.502;7.414;2023-08-08T07:01:16;22.33;;;11.77;;
2219;SDS011;1116;51.502;7.414;2023-08-08T07:03:47;19.05;;;10.75;;
2219;SDS011;1116;51.502;7.414;2023-08-08T07:06:19;22.42;;;11.25;;
2219;SDS011;1116;51.502;7.414;2023-08-08T07:08:50;19.90;;;11.43;;
2219;SDS011;1116;51.502;7.414;2023-08-08T07:11:21;23.80;;;12.02;;
2219;SDS011;1116;51.502;7.414;2023-08-08T07:13:55;21.95;;;11.43;;
2219;SDS011;1116;51.502;7.414;2023-08-08T07:16:26;35.83;;;12.23;;
2219;SDS011;1116;51.502;7.414;2023-08-08T07:18:58;28.38;;;13.75;;
2219;SDS011;1116;51.502;7.414;2023-08-08T07:21:30;27.08;;;12.85;;
2219;SDS011;1116;51.502;7.414;2023-08-08T07:24:01;23.02;;;11.80;;
2219;SDS011;1116;51.502;7.414;2023-08-08T07:26:33;31.35;;;12.68;;
2219;SDS011;1116;51.502;7.414;2023-08-08T07:29:07;20.30;;;11.70;;
2219;SDS011;1116;51.502;7.414;2023-08-08T07:31:38;22.05;;;11.77;;
2219;SDS011;1116;51.502;7.414;2023-08-08T07:34:10;27.23;;;12.02;;
2219;SDS011;1116;51.502;7.414;2023-08-08T07:36:41;21.75;;;11.18;;
2219;SDS011;1116;51.502;7.414;2023-08-08T07:39:11;22.35;;;12.32;;
2219;SDS011;1116;51.502;7.414;2023-08-08T07:41:42;19.48;;;11.27;;
2219;SDS011;1116;51.502;7.414;2023-08-08T07:44:16;17.75;;;10.95;;
2219;SDS011;1116;51.502;7.414;2023-08-08T07:46:47;25.05;;;10.82;;
2219;SDS011;1116;51.502;7.414;2023-08-08T07:49:18;21.98;;;10.98;;
2219;SDS011;1116;51.502;7.414;2023-08-08T07:51:49;20.77;;;9.60;;
2219;SDS011;1116;51.502;7.414;2023-08-08T07:54:20;23.13;;;9.80;;
2219;SDS011;1116;51.502;7.414;2023-08-08T07:56:52;15.07;;;9.45;;
2219;SDS011;1116;51.502;7.414;2023-08-08T07:59:25;15.00;;;8.02;;
2219;SDS011;1116;51.502;7.414;2023-08-08T08:01:56;19.45;;;8.82;;
2219;SDS011;1116;51.502;7.414;2023-08-08T08:04:28;17.80;;;8.43;;
2219;SDS011;1116;51.502;7.414;2023-08-08T08:06:58;16.33;;;7.43;;
2219;SDS011;1116;51.502;7.414;2023-08-08T08:09:29;12.40;;;7.40;;
2219;SDS011;1116;51.502;7.414;2023-08-08T08:12:00;17.77;;;7.30;;
2219;SDS011;1116;51.502;7.414;2023-08-08T08:14:34;15.57;;;7.55;;
2219;SDS011;1116;51.502;7.414;2023-08-08T08:17:05;17.10;;;7.63;;
2219;SDS011;1116;51.502;7.414;2023-08-08T08:19:36;17.38;;;6.00;;
2219;SDS011;1116;51.502;7.414;2023-08-08T08:22:07;15.88;;;7.18;;
2219;SDS011;1116;51.502;7.414;2023-08-08T08:24:38;19.25;;;6.53;;
2219;SDS011;1116;51.502;7.414;2023-08-08T08:27:10;17.20;;;6.85;;
2219;SDS011;1116;51.502;7.414;2023-08-08T08:29:43;11.88;;;5.60;;
2219;SDS011;1116;51.502;7.414;2023-08-08T08:32:14;19.30;;;6.07;;
2219;SDS011;1116;51.502;7.414;2023-08-08T08:34:45;10.48;;;5.00;;
2219;SDS011;1116;51.502;7.414;2023-08-08T08:37:16;10.07;;;5.28;;
2219;SDS011;1116;51.502;7.414;2023-08-08T08:39:46;13.57;;;5.07;;
2219;SDS011;1116;51.502;7.414;2023-08-08T08:42:18;8.80;;;4.05;;
2219;SDS011;1116;51.502;7.414;2023-08-08T08:44:52;13.55;;;4.85;;
2219;SDS011;1116;51.502;7.414;2023-08-08T08:47:27;13.30;;;4.78;;
2219;SDS011;1116;51.502;7.414;2023-08-08T08:50:00;10.27;;;3.85;;
2219;SDS011;1116;51.502;7.414;2023-08-08T08:52:31;13.00;;;4.07;;
2219;SDS011;1116;51.502;7.414;2023-08-08T08:55:02;10.35;;;3.80;;
2219;SDS011;1116;51.502;7.414;2023-08-08T08:57:33;12.40;;;3.47;;
2219;SDS011;1116;51.502;7.414;2023-08-08T09:00:08;8.05;;;3.33;;
2219;SDS011;1116;51.502;7.414;2023-08-08T09:02:39;8.07;;;3.45;;
2219;SDS011;1116;51.502;7.414;2023-08-08T09:05:10;9.35;;;3.35;;
2219;SDS011;1116;51.502;7.414;2023-08-08T09:07:42;9.20;;;3.20;;
2219;SDS011;1116;51.502;7.414;2023-08-08T09:10:13;9.93;;;3.78;;
2219;SDS011;1116;51.502;7.414;2023-08-08T09:12:46;6.57;;;2.92;;
2219;SDS011;1116;51.502;7.414;2023-08-08T09:15:19;7.65;;;3.00;;
2219;SDS011;1116;51.502;7.414;2023-08-08T09:17:50;8.18;;;3.22;;
2219;SDS011;1116;51.502;7.414;2023-08-08T09:20:22;8.02;;;3.00;;
2219;SDS011;1116;51.502;7.414;2023-08-08T09:22:55;10.07;;;3.20;;
2219;SDS011;1116;51.502;7.414;2023-08-08T09:25:26;10.80;;;2.83;;
2219;SDS011;1116;51.502;7.414;2023-08-08T09:27:57;7.70;;;2.70;;
2219;SDS011;1116;51.502;7.414;2023-08-08T09:30:31;7.53;;;2.85;;
2219;SDS011;1116;51.502;7.414;2023-08-08T09:33:03;7.45;;;2.78;;
2219;SDS011;1116;51.502;7.414;2023-08-08T09:35:34;6.15;;;2.90;;
2219;SDS011;1116;51.502;7.414;2023-08-08T09:38:07;9.27;;;3.05;;
2219;SDS011;1116;51.502;7.414;2023-08-08T09:40:38;9.65;;;2.55;;
2219;SDS011;1116;51.502;7.414;2023-08-08T09:43:11;8.07;;;2.88;;
2219;SDS011;1116;51.502;7.414;2023-08-08T09:45:44;6.75;;;2.80;;
2219;SDS011;1116;51.502;7.414;2023-08-08T09:48:18;3.53;;;1.90;;
2219;SDS011;1116;51.502;7.414;2023-08-08T09:50:50;8.35;;;2.75;;
2219;SDS011;1116;51.502;7.414;2023-08-08T09:53:21;9.27;;;2.92;;
2219;SDS011;1116;51.502;7.414;2023-08-08T09:55:53;10.18;;;2.45;;
2219;SDS011;1116;51.502;7.414;2023-08-08T09:58:25;7.07;;;3.03;;
2219;SDS011;1116;51.502;7.414;2023-08-08T10:00:59;12.52;;;2.63;;
2219;SDS011;1116;51.502;7.414;2023-08-08T10:03:32;10.93;;;3.38;;
2219;SDS011;1116;51.502;7.414;2023-08-08T10:06:05;10.00;;;2.35;;
2219;SDS011;1116;51.502;7.414;2023-08-08T10:08:36;8.73;;;2.88;;
2219;SDS011;1116;51.502;7.414;2023-08-08T10:11:08;9.45;;;2.45;;
2219;SDS011;1116;51.502;7.414;2023-08-08T10:13:47;8.18;;;2.55;;
2219;SDS011;1116;51.502;7.414;2023-08-08T10:16:21;11.35;;;2.35;;
2219;SDS011;1116;51.502;7.414;2023-08-08T10:18:56;8.50;;;2.78;;
2219;SDS011;1116;51.502;7.414;2023-08-08T10:21:31;7.25;;;2.22;;
2219;SDS011;1116;51.502;7.414;2023-08-08T10:24:04;11.73;;;2.78;;
2219;SDS011;1116;51.502;7.414;2023-08-08T10:26:50;5.38;;;2.30;;
2219;SDS011;1116;51.502;7.414;2023-08-08T10:29:24;8.70;;;2.40;;
2219;SDS011;1116;51.502;7.414;2023-08-08T10:32:00;11.40;;;2.95;;
2219;SDS011;1116;51.502;7.414;2023-08-08T10:34:37;7.05;;;1.95;;
2219;SDS011;1116;51.502;7.414;2023-08-08T10:37:09;10.77;;;2.50;;
2219;SDS011;1116;51.502;7.414;2023-08-08T10:39:52;7.35;;;2.90;;
2219;SDS011;1116;51.502;7.414;2023-08-08T10:42:25;6.70;;;3.05;;
2219;SDS011;1116;51.502;7.414;2023-08-08T10:44:59;6.03;;;2.25;;
2219;SDS011;1116;51.502;7.414;2023-08-08T10:47:33;7.90;;;2.67;;
2219;SDS011;1116;51.502;7.414;2023-08-08T10:50:06;5.72;;;3.17;;
2219;SDS011;1116;51.502;7.414;2023-08-08T10:52:49;7.38;;;2.80;;
2219;SDS011;1116;51.502;7.414;2023-08-08T10:55:23;7.05;;;2.50;;
2219;SDS011;1116;51.502;7.414;2023-08-08T10:57:58;6.00;;;2.28;;
2219;SDS011;1116;51.502;7.414;2023-08-08T11:00:34;5.95;;;2.25;;
2219;SDS011;1116;51.502;7.414;2023-08-08T11:03:09;8.10;;;2.78;;
2219;SDS011;1116;51.502;7.414;2023-08-08T11:05:41;9.27;;;2.40;;
2219;SDS011;1116;51.502;7.414;2023-08-08T11:08:14;10.55;;;3.05;;
2219;SDS011;1116;51.502;7.414;2023-08-08T11:10:50;7.28;;;2.55;;
2219;SDS011;1116;51.502;7.414;2023-08-08T11:13:22;7.75;;;2.80;;
2219;SDS011;1116;51.502;7.414;2023-08-08T11:15:54;7.25;;;2.85;;
2219;SDS011;1116;51.502;7.414;2023-08-08T11:18:28;9.00;;;3.03;;
2219;SDS011;1116;51.502;7.414;2023-08-08T11:20:59;11.60;;;2.73;;
2219;SDS011;1116;51.502;7.414;2023-08-08T11:23:45;8.88;;;2.63;;
2219;SDS011;1116;51.502;7.414;2023-08-08T11:26:18;4.68;;;2.55;;
2219;SDS011;1116;51.502;7.414;2023-08-08T11:28:49;7.88;;;3.30;;
2219;SDS011;1116;51.502;7.414;2023-08-08T11:31:21;8.30;;;2.60;;
2219;SDS011;1116;51.502;7.414;2023-08-08T11:33:55;7.32;;;2.58;;
2219;SDS011;1116;51.502;7.414;2023-08-08T11:39:00;6.45;;;2.97;;
2219;SDS011;1116;51.502;7.414;2023-08-08T11:41:36;8.77;;;2.95;;
2219;SDS011;1116;51.502;7.414;2023-08-08T11:44:08;10.70;;;2.83;;
2219;SDS011;1116;51.502;7.414;2023-08-08T11:46:43;6.45;;;2.75;;
2219;SDS011;1116;51.502;7.414;2023-08-08T11:49:17;7.53;;;2.97;;
2219;SDS011;1116;51.502;7.414;2023-08-08T11:51:49;7.95;;;2.45;;
2219;SDS011;1116;51.502;7.414;2023-08-08T11:54:23;7.07;;;2.33;;
2219;SDS011;1116;51.502;7.414;2023-08-08T11:57:00;7.10;;;2.80;;
2219;SDS011;1116;51.502;7.414;2023-08-08T11:59:31;11.38;;;2.78;;
2219;SDS011;1116;51.502;7.414;2023-08-08T12:02:02;6.88;;;2.53;;
2219;SDS011;1116;51.502;7.414;2023-08-08T12:04:36;8.20;;;2.45;;
2219;SDS011;1116;51.502;7.414;2023-08-08T12:07:06;8.88;;;2.60;;
2219;SDS011;1116;51.502;7.414;2023-08-08T12:09:37;6.68;;;2.47;;
2219;SDS011;1116;51.502;7.414;2023-08-08T12:12:09;6.82;;;2.40;;
2219;SDS011;1116;51.502;7.414;2023-08-08T12:14:45;5.20;;;1.80;;
2219;SDS011;1116;51.502;7.414;2023-08-08T12:17:33;5.00;;;2.30;;
2219;SDS011;1116;51.502;7.414;2023-08-08T12:20:07;5.75;;;2.22;;
2219;SDS011;1116;51.502;7.414;2023-08-08T12:22:39;4.78;;;2.03;;
2219;SDS011;1116;51.502;7.414;2023-08-08T12:25:09;5.70;;;1.95;;
2219;SDS011;1116;51.502;7.414;2023-08-08T12:27:39;6.53;;;2.22;;
2219;SDS011;1116;51.502;7.414;2023-08-08T12:30:10;8.18;;;2.20;;
2219;SDS011;1116;51.502;7.414;2023-08-08T12:32:41;7.20;;;2.03;;
2219;SDS011;1116;51.502;7.414;2023-08-08T12:35:13;5.55;;;2.08;;
2219;SDS011;1116;51.502;7.414;2023-08-08T12:37:44;5.38;;;1.80;;
2219;SDS011;1116;51.502;7.414;2023-08-08T12:40:15;6.93;;;2.38;;
2219;SDS011;1116;51.502;7.414;2023-08-08T12:42:45;4.90;;;2.20;;
2219;SDS011;1116;51.502;7.414;2023-08-08T12:45:15;6.57;;;2.25;;
2219;SDS011;1116;51.502;7.414;2023-08-08T12:47:45;6.80;;;2.00;;
2219;SDS011;1116;51.502;7.414;2023-08-08T12:50:19;5.53;;;1.95;;
2219;SDS011;1116;51.502;7.414;2023-08-08T12:52:51;9.13;;;2.42;;
2219;SDS011;1116;51.502;7.414;2023-08-08T12:55:22;7.20;;;2.50;;
2219;SDS011;1116;51.502;7.414;2023-08-08T12:57:53;6.38;;;2.33;;
2219;SDS011;1116;51.502;7.414;2023-08-08T13:00:24;6.88;;;2.22;;
2219;SDS011;1116;51.502;7.414;2023-08-08T13:02:55;5.30;;;2.28;;
2219;SDS011;1116;51.502;7.414;2023-08-08T13:05:31;6.45;;;2.38;;
2219;SDS011;1116;51.502;7.414;2023-08-08T13:08:02;5.13;;;2.13;;
2219;SDS011;1116;51.502;7.414;2023-08-08T13:10:35;5.13;;;1.98;;
2219;SDS011;1116;51.502;7.414;2023-08-08T13:13:06;8.38;;;2.05;;
2219;SDS011;1116;51.502;7.414;2023-08-08T13:15:36;9.80;;;2.63;;
2219;SDS011;1116;51.502;7.414;2023-08-08T13:18:07;8.57;;;2.67;;
2219;SDS011;1116;51.502;7.414;2023-08-08T13:20:41;7.53;;;3.00;;
2219;SDS011;1116;51.502;7.414;2023-08-08T13:23:12;6.22;;;2.25;;
2219;SDS011;1116;51.502;7.414;2023-08-08T13:25:42;10.13;;;2.65;;
2219;SDS011;1116;51.502;7.414;2023-08-08T13:28:13;8.20;;;3.03;;
2219;SDS011;1116;51.502;7.414;2023-08-08T13:30:44;8.63;;;2.40;;
2219;SDS011;1116;51.502;7.414;2023-08-08T13:33:16;8.52;;;2.67;;
2219;SDS011;1116;51.502;7.414;2023-08-08T13:35:49;6.55;;;2.63;;
2219;SDS011;1116;51.502;7.414;2023-08-08T13:38:21;7.35;;;3.00;;
2219;SDS011;1116;51.502;7.414;2023-08-08T13:40:52;5.55;;;2.88;;
2219;SDS011;1116;51.502;7.414;2023-08-08T13:43:23;7.80;;;2.50;;
2219;SDS011;1116;51.502;7.414;2023-08-08T13:45:54;5.78;;;2.55;;
2219;SDS011;1116;51.502;7.414;2023-08-08T13:48:26;8.02;;;3.05;;
2219;SDS011;1116;51.502;7.414;2023-08-08T13:50:58;4.68;;;2.40;;
2219;SDS011;1116;51.502;7.414;2023-08-08T13:53:30;7.25;;;2.70;;
2219;SDS011;1116;51.502;7.414;2023-08-08T13:56:01;5.60;;;2.10;;
2219;SDS011;1116;51.502;7.414;2023-08-08T13:58:33;9.77;;;2.72;;
2219;SDS011;1116;51.502;7.414;2023-08-08T14:01:04;8.30;;;2.55;;
2219;SDS011;1116;51.502;7.414;2023-08-08T14:03:35;6.80;;;2.20;;
2219;SDS011;1116;51.502;7.414;2023-08-08T14:06:09;8.43;;;2.25;;
2219;SDS011;1116;51.502;7.414;2023-08-08T14:08:40;6.30;;;2.10;;
2219;SDS011;1116;51.502;7.414;2023-08-08T14:11:13;7.65;;;2.22;;
2219;SDS011;1116;51.502;7.414;2023-08-08T14:13:44;5.93;;;1.55;;
2219;SDS011;1116;51.502;7.414;2023-08-08T14:16:15;7.15;;;2.05;;
2219;SDS011;1116;51.502;7.414;2023-08-08T14:18:46;5.65;;;1.90;;
2219;SDS011;1116;51.502;7.414;2023-08-08T14:21:20;7.78;;;2.25;;
2219;SDS011;1116;51.502;7.414;2023-08-08T14:23:51;5.10;;;2.00;;
2219;SDS011;1116;51.502;7.414;2023-08-08T14:26:22;4.18;;;1.75;;
2219;SDS011;1116;51.502;7.414;2023-08-08T14:28:52;7.50;;;2.22;;
2219;SDS011;1116;51.502;7.414;2023-08-08T14:31:23;4.65;;;1.90;;
2219;SDS011;1116;51.502;7.414;2023-08-08T14:33:55;5.43;;;2.33;;
2219;SDS011;1116;51.502;7.414;2023-08-08T14:36:28;5.50;;;2.25;;
2219;SDS011;1116;51.502;7.414;2023-08-08T14:39:00;5.60;;;2.50;;
2219;SDS011;1116;51.502;7.414;2023-08-08T14:41:31;5.82;;;2.08;;
2219;SDS011;1116;51.502;7.414;2023-08-08T14:44:02;4.68;;;1.90;;
2219;SDS011;1116;51.502;7.414;2023-08-08T14:46:34;8.40;;;2.40;;
2219;SDS011;1116;51.502;7.414;2023-08-08T14:49:05;3.72;;;1.90;;
2219;SDS011;1116;51.502;7.414;2023-08-08T14:51:39;3.50;;;2.10;;
2219;SDS011;1116;51.502;7.414;2023-08-08T14:54:10;3.50;;;1.63;;
2219;SDS011;1116;51.502;7.414;2023-08-08T14:56:41;7.18;;;2.42;;
2219;SDS011;1116;51.502;7.414;2023-08-08T14:59:12;6.55;;;2.17;;
2219;SDS011;1116;51.502;7.414;2023-08-08T15:01:44;6.65;;;1.77;;
2219;SDS011;1116;51.502;7.414;2023-08-08T15:04:15;4.68;;;2.08;;
2219;SDS011;1116;51.502;7.414;2023-08-08T15:06:49;5.63;;;2.10;;
2219;SDS011;1116;51.502;7.414;2023-08-08T15:09:20;7.35;;;2.28;;
2219;SDS011;1116;51.502;7.414;2023-08-08T15:11:51;5.50;;;2.10;;
2219;SDS011;1116;51.502;7.414;2023-08-08T15:14:23;7.75;;;2.05;;
2219;SDS011;1116;51.502;7.414;2023-08-08T15:16:54;4.40;;;1.73;;
2219;SDS011;1116;51.502;7.414;2023-08-08T15:19:25;4.65;;;1.65;;
2219;SDS011;1116;51.502;7.414;2023-08-08T15:21:59;4.25;;;1.90;;
2219;SDS011;1116;51.502;7.414;2023-08-08T15:24:30;5.32;;;1.77;;
2219;SDS011;1116;51.502;7.414;2023-08-08T15:27:03;3.45;;;1.75;;
2219;SDS011;1116;51.502;7.414;2023-08-08T15:29:34;2.80;;;1.60;;
2219;SDS011;1116;51.502;7.414;2023-08-08T15:32:06;4.15;;;1.58;;
2219;SDS011;1116;51.502;7.414;2023-08-08T15:34:37;7.20;;;1.55;;
2219;SDS011;1116;51.502;7.414;2023-08-08T15:37:10;2.78;;;1.67;;
2219;SDS011;1116;51.502;7.414;2023-08-08T15:39:42;3.10;;;1.55;;
2219;SDS011;1116;51.502;7.414;2023-08-08T15:42:13;3.78;;;1.45;;